Time;durP1;ratioP1;P1;durP2;ratioP2;P2;SDS_P1;SDS_P2;PMS_P1;PMS_P2;Temp;Humidity;BMP_temperature;BMP_pressure;BME280_temperature;BME280_humidity;BME280_pressure;Samples;Min_cycle;Max_cycle;Signal;HPM_P1;HPM_P2
2021/12/20 00:00:51;;;;;;;23.00;16.87;;;5.60;94.30;;;;;;5129962;27;20521;-45
2021/12/20 00:03:16;;;;;;;25.40;17.63;;;5.60;94.30;;;;;;5119444;27;20529;-45
2021/12/20 00:05:42;;;;;;;21.60;15.80;;;5.60;94.30;;;;;;5122355;27;20477;-45
2021/12/20 00:08:10;;;;;;;21.67;16.27;;;5.60;94.30;;;;;;5140344;27;20439;-45
2021/12/20 00:10:36;;;;;;;26.40;17.07;;;5.60;94.30;;;;;;5140138;27;20262;-45
2021/12/20 00:13:03;;;;;;;24.30;17.10;;;5.60;94.30;;;;;;5093173;28;20557;-45
2021/12/20 00:15:31;;;;;;;23.53;17.00;;;5.60;94.30;;;;;;5130118;27;20180;-45
2021/12/20 00:17:57;;;;;;;24.00;18.10;;;5.60;94.30;;;;;;5130294;27;20698;-45
2021/12/20 00:20:22;;;;;;;20.10;15.67;;;5.60;94.60;;;;;;5128213;27;20409;-45
2021/12/20 00:22:48;;;;;;;23.30;17.10;;;5.60;94.30;;;;;;5129665;27;20592;-45
2021/12/20 00:25:15;;;;;;;21.80;17.13;;;5.60;94.30;;;;;;5129697;27;20211;-51
2021/12/20 00:27:40;;;;;;;21.73;16.43;;;5.70;94.40;;;;;;5128110;27;20428;-45
2021/12/20 00:30:08;;;;;;;22.00;16.07;;;5.60;94.30;;;;;;5130410;27;20405;-45
2021/12/20 00:32:33;;;;;;;23.67;15.50;;;5.70;94.40;;;;;;5127092;27;20435;-45
2021/12/20 00:35:01;;;;;;;22.63;16.33;;;5.70;94.70;;;;;;5127951;27;20500;-45
2021/12/20 00:40:23;;;;;;;22.27;15.20;;;5.70;94.40;;;;;;5127979;27;20397;-44
2021/12/20 00:43:00;;;;;;;22.63;15.90;;;5.60;94.30;;;;;;5127394;27;20430;-45
2021/12/20 00:45:30;;;;;;;21.90;15.50;;;5.60;94.40;;;;;;5123785;27;20456;-45
2021/12/20 00:47:56;;;;;;;20.47;15.93;;;5.60;94.40;;;;;;5132942;27;20732;-45
2021/12/20 00:50:23;;;;;;;22.93;15.57;;;5.60;94.40;;;;;;5130177;27;20623;-45
2021/12/20 00:52:50;;;;;;;23.90;16.13;;;5.60;94.40;;;;;;5109304;27;20545;-44
2021/12/20 00:55:18;;;;;;;24.03;16.73;;;5.60;94.40;;;;;;5129382;27;20445;-45
2021/12/20 00:57:45;;;;;;;20.73;15.67;;;5.60;94.40;;;;;;5129500;27;20428;-45
2021/12/20 01:00:12;;;;;;;25.10;16.80;;;5.60;94.50;;;;;;5128298;27;20420;-45
2021/12/20 01:02:38;;;;;;;22.73;16.53;;;5.60;94.50;;;;;;5110409;27;20698;-45
2021/12/20 01:05:06;;;;;;;19.50;14.30;;;5.60;94.50;;;;;;5129909;27;20432;-44
2021/12/20 01:07:31;;;;;;;20.73;15.83;;;5.60;94.50;;;;;;5127805;27;20689;-44
2021/12/20 01:10:04;;;;;;;20.97;16.40;;;5.60;94.50;;;;;;5128157;27;20420;-44
2021/12/20 01:12:41;;;;;;;20.97;15.07;;;5.60;94.50;;;;;;5127659;27;20531;-44
2021/12/20 01:15:07;;;;;;;21.83;16.07;;;5.60;94.50;;;;;;5127368;27;20414;-45
2021/12/20 01:17:33;;;;;;;19.47;14.87;;;5.60;94.50;;;;;;5128884;27;20420;-44
2021/12/20 01:19:59;;;;;;;22.47;16.50;;;5.60;94.40;;;;;;5110857;27;20402;-45
2021/12/20 01:22:24;;;;;;;22.40;17.37;;;5.60;94.50;;;;;;5127259;27;20175;-43
2021/12/20 01:24:50;;;;;;;22.10;15.33;;;5.60;94.50;;;;;;5128998;27;20275;-44
2021/12/20 01:27:15;;;;;;;19.83;14.63;;;5.60;94.50;;;;;;5128552;27;20192;-44
2021/12/20 01:29:41;;;;;;;22.73;16.30;;;5.50;94.50;;;;;;5127776;27;20179;-44
2021/12/20 01:32:16;;;;;;;22.70;16.83;;;5.60;94.60;;;;;;5129202;27;20262;-45
2021/12/20 01:34:42;;;;;;;23.83;17.23;;;5.50;94.60;;;;;;5131143;27;20725;-44
2021/12/20 01:37:07;;;;;;;26.70;17.10;;;5.50;94.60;;;;;;5132703;27;20406;-44
2021/12/20 01:39:33;;;;;;;24.53;17.60;;;5.50;94.60;;;;;;5127600;28;20177;-45
2021/12/20 01:42:00;;;;;;;22.00;16.20;;;5.50;94.60;;;;;;5129179;28;20168;-44
2021/12/20 01:44:25;;;;;;;24.17;16.67;;;5.50;94.60;;;;;;5126704;28;20180;-45
2021/12/20 01:46:51;;;;;;;21.80;16.50;;;5.50;94.60;;;;;;5128380;27;20474;-44
2021/12/20 01:49:18;;;;;;;24.47;16.90;;;5.50;94.60;;;;;;5128616;28;20211;-44
2021/12/20 01:54:14;;;;;;;24.40;17.93;;;5.50;94.70;;;;;;5135339;27;20571;-45
2021/12/20 01:56:42;;;;;;;23.67;16.73;;;5.60;94.70;;;;;;5132223;27;20688;-44
2021/12/20 01:59:09;;;;;;;25.03;17.33;;;5.60;94.80;;;;;;5131031;27;20705;-45
2021/12/20 02:01:35;;;;;;;29.03;18.57;;;5.60;94.70;;;;;;5132439;27;20425;-44
2021/12/20 02:04:05;;;;;;;26.60;17.50;;;5.60;94.70;;;;;;5114172;27;20425;-44
2021/12/20 02:06:35;;;;;;;24.50;17.40;;;5.50;94.70;;;;;;5130965;27;20466;-44
2021/12/20 02:09:11;;;;;;;21.07;15.93;;;5.60;94.80;;;;;;5113641;27;20440;-44
2021/12/20 02:11:40;;;;;;;26.43;18.03;;;5.60;94.80;;;;;;5131392;27;20513;-45
2021/12/20 02:14:07;;;;;;;21.50;17.40;;;5.50;94.80;;;;;;5131196;27;20571;-45
2021/12/20 02:16:33;;;;;;;21.40;16.47;;;5.50;94.80;;;;;;5130866;27;20494;-45
2021/12/20 02:19:04;;;;;;;25.03;18.30;;;5.60;94.90;;;;;;5113687;27;20429;-44
2021/12/20 02:21:30;;;;;;;22.73;17.17;;;5.60;94.90;;;;;;5114776;27;20401;-45
2021/12/20 02:23:56;;;;;;;22.53;16.80;;;5.60;94.90;;;;;;5130736;27;20465;-44
2021/12/20 02:29:58;;;;;;;22.83;16.70;;;5.50;94.80;;;;;;5132029;27;20183;-44
2021/12/20 02:37:55;;;;;;;20.60;15.53;;;5.50;95.20;;;;;;5129450;27;20950;-45
2021/12/20 02:40:22;;;;;;;24.00;15.63;;;5.50;94.90;;;;;;5121446;28;20904;-44
2021/12/20 02:42:52;;;;;;;21.90;15.57;;;5.50;94.90;;;;;;5120815;28;20481;-45
2021/12/20 02:45:17;;;;;;;21.30;15.90;;;5.50;94.90;;;;;;5121193;28;20436;-44
2021/12/20 02:47:45;;;;;;;20.10;15.30;;;5.50;94.90;;;;;;5121944;28;20417;-44
2021/12/20 02:50:12;;;;;;;21.60;15.57;;;5.50;94.80;;;;;;5121007;28;20164;-44
2021/12/20 02:52:39;;;;;;;20.37;14.70;;;5.50;94.80;;;;;;5121278;28;20532;-44
2021/12/20 02:55:07;;;;;;;20.07;15.00;;;5.50;94.80;;;;;;5121050;28;20462;-44
2021/12/20 02:57:34;;;;;;;23.20;16.87;;;5.50;94.80;;;;;;5120782;28;20433;-44
2021/12/20 03:00:00;;;;;;;18.57;15.07;;;5.50;94.80;;;;;;5121059;28;20422;-45
2021/12/20 03:02:26;;;;;;;21.17;14.30;;;5.50;94.80;;;;;;5120791;28;20919;-45
2021/12/20 03:04:51;;;;;;;19.03;15.27;;;5.50;94.80;;;;;;5120499;28;20185;-42
2021/12/20 03:07:23;;;;;;;19.50;14.53;;;5.50;94.80;;;;;;5121102;28;20790;-44
2021/12/20 03:09:57;;;;;;;17.10;13.60;;;5.50;94.80;;;;;;5121166;28;20490;-44
2021/12/20 03:12:26;;;;;;;21.07;14.93;;;5.50;94.80;;;;;;5121080;28;20407;-45
2021/12/20 03:14:55;;;;;;;20.47;14.70;;;5.50;94.80;;;;;;5120737;28;21059;-44
2021/12/20 03:17:21;;;;;;;21.70;15.27;;;5.50;94.80;;;;;;5101906;28;20723;-45
2021/12/20 03:19:47;;;;;;;17.77;14.50;;;5.50;94.80;;;;;;5119700;28;20418;-45
2021/12/20 03:22:12;;;;;;;18.00;13.63;;;5.50;94.80;;;;;;5119750;28;20262;-45
2021/12/20 03:24:38;;;;;;;18.77;14.87;;;5.50;94.80;;;;;;5119448;28;20245;-45
2021/12/20 03:27:05;;;;;;;21.67;16.23;;;5.50;94.80;;;;;;5119609;28;20187;-45
2021/12/20 03:29:31;;;;;;;18.10;14.33;;;5.50;94.70;;;;;;5101700;28;20194;-45
2021/12/20 03:31:56;;;;;;;21.23;15.73;;;5.40;94.70;;;;;;5120396;28;20508;-45
2021/12/20 03:34:22;;;;;;;21.70;15.37;;;5.40;94.70;;;;;;5119059;28;20216;-45
2021/12/20 03:36:48;;;;;;;18.87;14.23;;;5.40;94.80;;;;;;5119421;28;20173;-45
2021/12/20 03:39:14;;;;;;;19.53;15.07;;;5.40;94.80;;;;;;5119307;28;20420;-45
2021/12/20 03:41:40;;;;;;;18.53;13.53;;;5.40;94.80;;;;;;5119133;28;20172;-45
2021/12/20 03:44:07;;;;;;;20.03;15.17;;;5.40;94.80;;;;;;5118810;28;20424;-45
2021/12/20 03:46:33;;;;;;;19.60;13.50;;;5.40;94.90;;;;;;5119359;28;20418;-45
2021/12/20 03:48:59;;;;;;;18.57;13.13;;;5.40;94.90;;;;;;5118178;28;20836;-45
2021/12/20 03:51:25;;;;;;;18.77;14.77;;;5.40;94.90;;;;;;5100870;28;20494;-45
2021/12/20 03:53:50;;;;;;;18.90;14.90;;;5.40;94.90;;;;;;5120088;28;20462;-45
2021/12/20 03:56:16;;;;;;;17.30;13.90;;;5.40;94.90;;;;;;5119977;28;20175;-45
2021/12/20 03:58:42;;;;;;;16.97;13.50;;;5.40;95.00;;;;;;5120436;28;20173;-45
2021/12/20 04:01:10;;;;;;;19.20;14.53;;;5.40;94.90;;;;;;5119887;28;20259;-45
2021/12/20 04:03:39;;;;;;;22.13;14.40;;;5.40;94.90;;;;;;5120365;28;20179;-45
2021/12/20 04:06:08;;;;;;;21.67;15.40;;;5.40;94.90;;;;;;5119729;28;20464;-45
2021/12/20 04:08:34;;;;;;;19.13;14.20;;;5.40;94.90;;;;;;5101903;28;20993;-45
2021/12/20 04:11:00;;;;;;;20.47;14.20;;;5.40;95.00;;;;;;5119767;28;20418;-45
2021/12/20 04:13:26;;;;;;;18.80;14.50;;;5.40;95.00;;;;;;5119885;28;20480;-45
2021/12/20 04:15:53;;;;;;;18.63;14.27;;;5.30;95.00;;;;;;5119556;28;20520;-45
2021/12/20 04:18:19;;;;;;;18.77;13.87;;;5.30;95.00;;;;;;5120154;28;20455;-45
2021/12/20 04:20:45;;;;;;;20.53;15.33;;;5.30;95.00;;;;;;5119720;28;20420;-45
2021/12/20 04:23:11;;;;;;;18.80;14.10;;;5.30;95.00;;;;;;5119575;28;20421;-46
2021/12/20 04:25:36;;;;;;;18.53;14.50;;;5.30;95.10;;;;;;5119705;28;20275;-45
2021/12/20 04:28:03;;;;;;;19.03;14.37;;;5.30;95.10;;;;;;5119511;28;20187;-45
2021/12/20 04:30:30;;;;;;;20.20;14.70;;;5.30;95.10;;;;;;5119204;28;20180;-45
2021/12/20 04:32:56;;;;;;;21.50;14.53;;;5.30;95.10;;;;;;5119260;28;20414;-45
2021/12/20 04:35:22;;;;;;;20.27;14.60;;;5.30;95.10;;;;;;5118499;28;20843;-45
2021/12/20 04:37:49;;;;;;;17.00;14.30;;;5.30;95.10;;;;;;5118309;28;20232;-45
2021/12/20 04:40:21;;;;;;;18.10;14.10;;;5.30;95.10;;;;;;5100305;28;20729;-45
2021/12/20 04:42:49;;;;;;;18.90;14.73;;;5.30;95.10;;;;;;5118070;28;20910;-45
2021/12/20 04:45:16;;;;;;;19.70;14.30;;;5.30;95.10;;;;;;5118125;28;20422;-45
2021/12/20 04:47:42;;;;;;;18.03;12.63;;;5.30;95.20;;;;;;5117641;28;20749;-45
2021/12/20 04:50:08;;;;;;;19.77;14.17;;;5.30;95.20;;;;;;5117557;28;20417;-45
2021/12/20 04:52:34;;;;;;;18.20;14.23;;;5.30;95.20;;;;;;5118186;28;20553;-45
2021/12/20 04:55:00;;;;;;;19.03;13.77;;;5.30;95.20;;;;;;5117302;28;20480;-45
2021/12/20 04:57:28;;;;;;;18.87;13.40;;;5.30;95.20;;;;;;5117719;28;20180;-45
2021/12/20 04:59:53;;;;;;;18.47;13.97;;;5.30;95.20;;;;;;5099297;28;20184;-45
2021/12/20 05:02:19;;;;;;;17.77;13.90;;;5.30;95.20;;;;;;5116819;28;20517;-45
2021/12/20 05:04:45;;;;;;;15.93;12.47;;;5.30;95.20;;;;;;5116873;28;20262;-48
2021/12/20 05:07:11;;;;;;;17.40;13.80;;;5.30;95.20;;;;;;5116788;28;20546;-48
2021/12/20 05:09:39;;;;;;;19.53;14.10;;;5.30;95.30;;;;;;5116871;28;20426;-48
2021/12/20 05:12:14;;;;;;;18.80;14.27;;;5.40;95.30;;;;;;5116339;28;20184;-48
2021/12/20 05:14:47;;;;;;;20.63;14.73;;;5.40;95.20;;;;;;5116926;28;20879;-48
2021/12/20 05:17:14;;;;;;;16.57;13.27;;;5.50;95.20;;;;;;5117537;28;20508;-48
2021/12/20 05:19:41;;;;;;;18.73;13.53;;;5.50;95.10;;;;;;5117840;28;20421;-48
2021/12/20 05:22:11;;;;;;;17.00;14.13;;;5.50;95.10;;;;;;5117124;28;20834;-48
2021/12/20 05:24:38;;;;;;;15.30;11.93;;;5.50;95.00;;;;;;5117867;28;20466;-48
2021/12/20 05:27:04;;;;;;;18.50;14.23;;;5.50;95.00;;;;;;5100007;28;20748;-48
2021/12/20 05:29:30;;;;;;;20.97;14.30;;;5.60;95.00;;;;;;5118156;28;20468;-47
2021/12/20 05:31:55;;;;;;;15.70;12.73;;;5.50;94.90;;;;;;5118035;28;20720;-48
2021/12/20 05:34:21;;;;;;;17.87;13.97;;;5.50;94.80;;;;;;5126920;27;20250;-48
2021/12/20 05:36:47;;;;;;;18.57;13.93;;;5.60;94.90;;;;;;5138463;27;20493;-48
2021/12/20 05:39:12;;;;;;;18.70;13.43;;;5.60;94.90;;;;;;5138241;27;20175;-48
2021/12/20 05:41:38;;;;;;;16.53;13.10;;;5.50;94.80;;;;;;5137544;27;20205;-48
2021/12/20 05:44:04;;;;;;;19.67;13.30;;;5.60;94.90;;;;;;5137064;27;20524;-48
2021/12/20 05:46:30;;;;;;;18.20;12.73;;;5.50;94.80;;;;;;5137422;27;20202;-47
2021/12/20 05:48:55;;;;;;;18.27;14.40;;;5.50;94.80;;;;;;5137824;27;20568;-47
2021/12/20 05:51:21;;;;;;;19.13;13.63;;;5.50;94.80;;;;;;5137310;27;20468;-47
2021/12/20 05:53:47;;;;;;;20.20;15.00;;;5.50;95.20;;;;;;5137704;27;20256;-48
2021/12/20 05:56:12;;;;;;;17.00;13.13;;;5.50;94.90;;;;;;5137376;27;20560;-47
2021/12/20 05:58:39;;;;;;;19.80;13.77;;;5.50;94.90;;;;;;5136384;28;20243;-48
2021/12/20 06:01:04;;;;;;;16.93;13.10;;;5.50;94.90;;;;;;5126057;28;20425;-48
2021/12/20 06:03:30;;;;;;;18.83;14.07;;;5.50;94.90;;;;;;5126830;27;20433;-48
2021/12/20 06:05:55;;;;;;;17.20;13.77;;;5.50;94.90;;;;;;5135989;27;20669;-48
2021/12/20 06:08:21;;;;;;;17.33;13.63;;;5.50;94.90;;;;;;5135537;27;20525;-48
2021/12/20 06:10:47;;;;;;;17.27;14.00;;;5.50;94.90;;;;;;5134401;27;20271;-48
2021/12/20 06:13:13;;;;;;;17.40;13.40;;;5.50;94.90;;;;;;5135254;28;20211;-48
2021/12/20 06:15:38;;;;;;;17.70;13.23;;;5.50;95.00;;;;;;5135543;27;20752;-48
2021/12/20 06:18:04;;;;;;;19.87;14.30;;;5.50;95.00;;;;;;5134759;27;20266;-48
2021/12/20 06:20:31;;;;;;;18.07;14.10;;;5.50;95.00;;;;;;5135010;27;20444;-48
2021/12/20 06:22:57;;;;;;;17.20;12.90;;;5.50;94.90;;;;;;5132725;27;20700;-48
2021/12/20 06:25:23;;;;;;;18.30;13.87;;;5.50;94.90;;;;;;5132151;27;20536;-49
2021/12/20 06:27:48;;;;;;;19.03;14.20;;;5.50;95.00;;;;;;5126559;27;20227;-48
2021/12/20 06:30:14;;;;;;;18.87;14.17;;;5.50;95.00;;;;;;5093734;28;20184;-46
2021/12/20 06:32:42;;;;;;;18.63;14.50;;;5.60;95.10;;;;;;5093702;28;20456;-47
2021/12/20 06:35:09;;;;;;;17.93;13.40;;;5.50;95.00;;;;;;5112024;28;20480;-47
2021/12/20 06:37:35;;;;;;;17.33;12.50;;;5.50;95.00;;;;;;5112344;28;20426;-47
2021/12/20 06:40:00;;;;;;;20.10;13.10;;;5.50;95.00;;;;;;5116269;28;20708;-47
2021/12/20 06:42:26;;;;;;;19.80;15.53;;;5.50;95.00;;;;;;5116471;28;20222;-47
2021/12/20 06:44:52;;;;;;;22.20;17.20;;;5.50;95.00;;;;;;5116479;28;20180;-47
2021/12/20 06:47:19;;;;;;;22.70;15.90;;;5.50;95.00;;;;;;5117921;28;20922;-47
2021/12/20 06:49:45;;;;;;;22.57;17.47;;;5.50;95.10;;;;;;5118541;28;20243;-47
2021/12/20 06:52:11;;;;;;;16.30;13.87;;;5.50;95.10;;;;;;5100739;28;20430;-47
2021/12/20 06:54:36;;;;;;;19.10;14.47;;;5.50;95.00;;;;;;5117261;28;20462;-47
2021/12/20 06:57:02;;;;;;;20.70;15.50;;;5.50;95.10;;;;;;5117558;28;20578;-46
2021/12/20 06:59:28;;;;;;;20.90;15.30;;;5.50;95.10;;;;;;5117937;28;20264;-47
2021/12/20 07:01:54;;;;;;;19.47;15.60;;;5.50;95.00;;;;;;5131840;27;20425;-47
2021/12/20 07:04:19;;;;;;;19.60;14.93;;;5.50;95.10;;;;;;5123958;27;20278;-47
2021/12/20 07:06:45;;;;;;;20.40;15.27;;;5.50;95.10;;;;;;5131306;27;20175;-47
2021/12/20 07:09:14;;;;;;;19.63;15.07;;;5.50;95.10;;;;;;5137073;27;20183;-47
2021/12/20 07:11:41;;;;;;;19.67;14.87;;;5.50;95.10;;;;;;5137248;27;20240;-47
2021/12/20 07:14:07;;;;;;;18.23;13.57;;;5.50;95.00;;;;;;5137868;27;20470;-46
2021/12/20 07:16:34;;;;;;;19.80;14.80;;;5.50;95.00;;;;;;5137349;27;20413;-47
2021/12/20 07:19:01;;;;;;;17.70;14.00;;;5.50;95.10;;;;;;5119541;27;20417;-46
2021/12/20 07:21:27;;;;;;;16.80;12.97;;;5.50;95.10;;;;;;5138082;27;20425;-47
2021/12/20 07:23:53;;;;;;;18.90;14.20;;;5.50;95.10;;;;;;5118479;27;20914;-46
2021/12/20 07:26:18;;;;;;;22.87;16.80;;;5.50;95.10;;;;;;5116743;28;20233;-46
2021/12/20 07:28:46;;;;;;;20.97;15.47;;;5.60;95.10;;;;;;5099528;28;20437;-47
2021/12/20 07:31:13;;;;;;;20.20;15.73;;;5.50;95.00;;;;;;5116954;28;20672;-47
2021/12/20 07:33:40;;;;;;;21.20;16.37;;;5.60;95.00;;;;;;5117381;28;20466;-47
2021/12/20 07:36:06;;;;;;;20.27;14.50;;;5.60;95.00;;;;;;5116968;28;20706;-47
2021/12/20 07:38:33;;;;;;;19.40;14.43;;;5.60;95.10;;;;;;5118270;28;20552;-46
2021/12/20 07:41:02;;;;;;;19.60;14.27;;;5.60;95.10;;;;;;5116831;28;20417;-47
2021/12/20 07:43:29;;;;;;;17.83;13.87;;;5.60;95.10;;;;;;5116113;28;20414;-46
2021/12/20 07:45:55;;;;;;;18.33;14.10;;;5.60;95.00;;;;;;5116606;28;20418;-47
2021/12/20 07:48:21;;;;;;;16.43;12.73;;;5.70;95.00;;;;;;5116580;28;20522;-46
2021/12/20 07:50:48;;;;;;;18.00;13.50;;;5.70;95.00;;;;;;5116632;28;20516;-47
2021/12/20 07:53:18;;;;;;;20.03;14.30;;;5.70;95.00;;;;;;5117292;28;20426;-47
2021/12/20 07:55:44;;;;;;;19.17;12.77;;;5.70;95.00;;;;;;5117255;28;20410;-47
2021/12/20 07:58:09;;;;;;;19.17;13.40;;;5.70;94.90;;;;;;5117718;28;20747;-47
2021/12/20 08:00:35;;;;;;;17.43;13.87;;;5.80;95.00;;;;;;5117001;28;20245;-47
2021/12/20 08:03:01;;;;;;;18.30;13.90;;;5.80;95.00;;;;;;5117174;28;20183;-47
2021/12/20 08:05:28;;;;;;;18.97;13.93;;;5.90;95.00;;;;;;5120718;27;20433;-46
2021/12/20 08:07:54;;;;;;;20.80;15.33;;;5.90;94.90;;;;;;5126917;27;20681;-47
2021/12/20 08:10:22;;;;;;;21.60;14.90;;;5.90;94.90;;;;;;5132809;27;20414;-47
2021/12/20 08:12:48;;;;;;;20.10;15.50;;;5.90;94.80;;;;;;5134007;27;20432;-47
2021/12/20 08:15:15;;;;;;;20.43;14.93;;;6.00;94.90;;;;;;5127084;27;20470;-46
2021/12/20 08:17:41;;;;;;;21.60;15.20;;;6.00;94.90;;;;;;5139110;27;20810;-47
2021/12/20 08:20:08;;;;;;;18.17;14.47;;;6.00;94.80;;;;;;5138039;27;20412;-47
2021/12/20 08:22:34;;;;;;;21.87;15.23;;;6.10;94.80;;;;;;5130033;27;20184;-47
2021/12/20 08:25:00;;;;;;;17.37;14.10;;;6.10;94.70;;;;;;5114379;28;20485;-46
2021/12/20 08:27:25;;;;;;;17.17;13.37;;;6.10;94.70;;;;;;5126376;27;20440;-47
2021/12/20 08:29:51;;;;;;;16.73;12.47;;;6.20;94.70;;;;;;5136398;27;20524;-47
2021/12/20 08:32:17;;;;;;;15.90;12.00;;;6.20;94.70;;;;;;5137212;27;20473;-47
2021/12/20 08:34:42;;;;;;;18.67;12.80;;;6.20;94.70;;;;;;5136597;27;20215;-47
2021/12/20 08:37:10;;;;;;;15.77;12.67;;;6.30;94.70;;;;;;5135521;27;20388;-47
2021/12/20 08:39:36;;;;;;;18.43;12.90;;;6.30;94.50;;;;;;5134236;27;20203;-47
2021/12/20 08:42:03;;;;;;;17.20;11.37;;;6.30;94.40;;;;;;5134711;27;20474;-47
2021/12/20 08:44:30;;;;;;;20.43;14.23;;;6.40;94.50;;;;;;5135612;27;20535;-47
2021/12/20 08:46:56;;;;;;;18.83;13.47;;;6.40;94.50;;;;;;5135524;27;20454;-47
2021/12/20 08:49:22;;;;;;;19.80;13.63;;;6.40;94.40;;;;;;5135582;27;20523;-47
2021/12/20 08:51:48;;;;;;;17.10;13.30;;;6.40;94.40;;;;;;5136267;27;20509;-47
2021/12/20 08:54:14;;;;;;;17.13;12.73;;;6.40;94.30;;;;;;5135997;27;20604;-47
2021/12/20 08:56:41;;;;;;;17.27;13.07;;;6.40;94.30;;;;;;5136065;27;20814;-47
2021/12/20 08:59:07;;;;;;;15.30;11.97;;;6.50;94.30;;;;;;5117053;27;20532;-47
2021/12/20 09:01:33;;;;;;;17.57;13.40;;;6.50;94.20;;;;;;5118186;27;20445;-48
2021/12/20 09:03:59;;;;;;;16.60;13.43;;;6.60;94.20;;;;;;5137979;27;20487;-48
2021/12/20 09:06:26;;;;;;;17.93;13.30;;;6.60;94.20;;;;;;5118724;27;20227;-48
2021/12/20 09:08:55;;;;;;;19.17;14.10;;;6.60;94.10;;;;;;5135685;27;20685;-47
2021/12/20 09:11:22;;;;;;;16.43;13.37;;;6.70;94.10;;;;;;5135725;27;20504;-48
2021/12/20 09:13:50;;;;;;;18.70;15.13;;;6.80;94.00;;;;;;5136882;27;20476;-48
2021/12/20 09:16:15;;;;;;;15.07;11.70;;;6.90;94.00;;;;;;5118875;27;20494;-47
2021/12/20 09:18:41;;;;;;;19.07;13.57;;;6.90;93.90;;;;;;5137300;27;20417;-48
2021/12/20 09:21:10;;;;;;;16.57;12.97;;;7.00;93.80;;;;;;5136295;27;20337;-48
2021/12/20 09:23:36;;;;;;;19.03;12.70;;;7.00;93.80;;;;;;5135119;27;20310;-48
2021/12/20 09:26:03;;;;;;;15.67;13.77;;;7.10;93.80;;;;;;5135022;27;20433;-48
2021/12/20 09:28:28;;;;;;;16.30;12.30;;;7.20;93.80;;;;;;5135789;27;20521;-48
2021/12/20 09:30:54;;;;;;;18.00;13.37;;;7.30;93.70;;;;;;5135941;27;20505;-48
2021/12/20 09:33:20;;;;;;;18.27;14.20;;;7.40;93.60;;;;;;5135782;27;20452;-48
2021/12/20 09:35:46;;;;;;;20.47;14.13;;;7.50;93.50;;;;;;5136002;27;20194;-48
2021/12/20 09:38:16;;;;;;;17.40;13.97;;;7.50;93.40;;;;;;5116160;27;20492;-48
2021/12/20 09:41:02;;;;;;;18.93;13.80;;;7.60;93.30;;;;;;5134911;27;20585;-48
2021/12/20 09:43:28;;;;;;;18.20;13.97;;;7.70;93.20;;;;;;5134444;27;20452;-48
2021/12/20 09:45:56;;;;;;;17.20;13.13;;;7.80;93.10;;;;;;5135186;27;20483;-48
2021/12/20 09:48:22;;;;;;;18.97;14.27;;;7.80;93.10;;;;;;5116110;28;20766;-48
2021/12/20 09:50:48;;;;;;;18.57;13.20;;;7.90;93.00;;;;;;5135142;27;20528;-49
2021/12/20 09:53:16;;;;;;;20.27;12.97;;;8.00;93.00;;;;;;5134587;27;20769;-48
2021/12/20 09:55:49;;;;;;;20.07;13.27;;;8.00;92.90;;;;;;5135167;27;20452;-48
2021/12/20 09:58:15;;;;;;;18.00;12.67;;;8.10;92.80;;;;;;5134973;27;21043;-48
2021/12/20 10:00:41;;;;;;;19.20;12.83;;;8.10;92.70;;;;;;5136582;27;20462;-47
2021/12/20 10:03:09;;;;;;;14.97;12.20;;;8.00;92.70;;;;;;5118837;27;20416;-47
2021/12/20 10:05:36;;;;;;;15.10;12.27;;;8.00;92.60;;;;;;5136506;27;20417;-47
2021/12/20 10:08:12;;;;;;;16.50;12.73;;;8.00;92.60;;;;;;5136296;27;20440;-48
2021/12/20 10:10:50;;;;;;;14.47;10.67;;;8.00;92.60;;;;;;5136476;27;20419;-41
2021/12/20 10:13:44;;;;;;;5.83;4.60;;;8.10;93.00;;;;;;5140112;27;20432;-43
2021/12/20 10:16:21;;;;;;;6.07;4.10;;;9.10;99.90;;;;;;5137925;27;20444;-42
2021/12/20 10:18:47;;;;;;;6.03;4.03;;;10.10;99.90;;;;;;5140716;27;20405;-42
2021/12/20 10:21:13;;;;;;;6.07;4.30;;;11.10;99.90;;;;;;5140761;27;20413;-42
2021/12/20 10:23:41;;;;;;;6.10;4.03;;;11.80;99.90;;;;;;5139893;27;20424;-42
2021/12/20 10:26:18;;;;;;;7.67;4.83;;;12.50;99.50;;;;;;5121124;27;20181;-41
2021/12/20 10:28:44;;;;;;;8.90;5.90;;;13.20;97.40;;;;;;5138568;27;20420;-42
2021/12/20 10:31:16;;;;;;;10.40;8.13;;;13.50;95.90;;;;;;5135463;27;20434;-42
2021/12/20 10:34:00;;;;;;;12.67;10.23;;;13.50;94.30;;;;;;5136765;27;20485;-41
2021/12/20 10:36:27;;;;;;;14.17;10.47;;;13.30;92.20;;;;;;5135706;27;20417;-43
2021/12/20 10:38:56;;;;;;;16.87;12.60;;;13.10;91.00;;;;;;5135763;27;20454;-45
2021/12/20 10:41:35;;;;;;;14.60;11.50;;;12.80;90.20;;;;;;5136935;27;20420;-42
2021/12/20 10:44:18;;;;;;;14.63;11.63;;;12.50;89.30;;;;;;5120337;27;20435;-41
2021/12/20 10:46:53;;;;;;;13.47;11.10;;;12.40;88.40;;;;;;5121639;27;20689;-41
2021/12/20 10:49:27;;;;;;;14.40;11.87;;;12.30;87.60;;;;;;5137317;27;20447;-42
2021/12/20 10:51:54;;;;;;;14.87;12.80;;;12.30;86.90;;;;;;5137465;27;20415;-41
2021/12/20 10:54:23;;;;;;;14.20;12.50;;;12.30;86.10;;;;;;5136353;27;20827;-41
2021/12/20 10:56:55;;;;;;;15.87;12.47;;;12.20;85.30;;;;;;5135750;27;20484;-42
2021/12/20 10:59:25;;;;;;;12.87;11.23;;;12.20;84.70;;;;;;5135684;27;20420;-41
2021/12/20 11:04:35;;;;;;;12.20;10.67;;;12.30;83.40;;;;;;5138005;27;20509;-43
2021/12/20 11:09:43;;;;;;;11.30;9.03;;;13.20;81.70;;;;;;5137744;27;20450;-42
2021/12/20 11:12:20;;;;;;;11.97;8.63;;;13.50;80.10;;;;;;5136834;27;20429;-41
2021/12/20 11:14:49;;;;;;;8.93;7.50;;;13.80;78.90;;;;;;5137515;27;20504;-43
2021/12/20 11:17:17;;;;;;;12.10;8.73;;;14.40;77.20;;;;;;5138214;27;20447;-43
2021/12/20 11:19:45;;;;;;;8.60;7.33;;;14.70;74.40;;;;;;5137623;27;20432;-42
2021/12/20 11:22:20;;;;;;;10.33;7.30;;;15.10;72.40;;;;;;5138474;27;20706;-45
2021/12/20 11:25:03;;;;;;;10.00;7.20;;;15.30;70.60;;;;;;5138053;27;20492;-42
2021/12/20 11:27:53;;;;;;;7.47;6.03;;;15.80;68.90;;;;;;5138022;27;20431;-41
2021/12/20 11:30:22;;;;;;;7.57;6.03;;;15.90;66.90;;;;;;5137958;27;20415;-42
2021/12/20 11:32:49;;;;;;;8.50;6.23;;;16.00;65.70;;;;;;5137976;27;20412;-41
2021/12/20 11:35:16;;;;;;;7.37;5.90;;;16.10;64.90;;;;;;5136673;27;20823;-43
2021/12/20 11:37:42;;;;;;;9.40;7.00;;;16.80;63.00;;;;;;5135018;27;20998;-43
2021/12/20 11:40:11;;;;;;;8.23;6.90;;;18.00;61.10;;;;;;5117265;27;20439;-43
2021/12/20 11:42:36;;;;;;;7.47;6.60;;;19.20;58.40;;;;;;5136439;27;20453;-43
2021/12/20 11:45:08;;;;;;;7.53;5.87;;;20.40;55.60;;;;;;5135418;27;20421;-45
2021/12/20 11:47:54;;;;;;;9.03;6.50;;;20.60;53.60;;;;;;5134347;27;20178;-44
2021/12/20 11:50:22;;;;;;;8.77;6.43;;;21.50;51.90;;;;;;5100944;28;20436;-44
2021/12/20 11:52:52;;;;;;;8.07;6.17;;;22.40;49.20;;;;;;5115445;28;20453;-42
2021/12/20 11:55:19;;;;;;;7.97;6.13;;;23.10;47.40;;;;;;5115704;28;20773;-41
2021/12/20 11:57:50;;;;;;;7.83;5.20;;;23.00;46.00;;;;;;5115354;28;20415;-41
2021/12/20 12:00:28;;;;;;;8.93;5.70;;;22.60;45.10;;;;;;5117057;28;20422;-44
2021/12/20 12:03:06;;;;;;;7.20;5.80;;;22.00;45.00;;;;;;5097670;28;20418;-42
2021/12/20 12:05:51;;;;;;;6.60;5.13;;;21.20;45.00;;;;;;5097342;28;20410;-43
2021/12/20 12:08:33;;;;;;;8.17;6.03;;;20.50;45.50;;;;;;5116685;28;20417;-42
2021/12/20 12:11:10;;;;;;;6.23;5.27;;;19.60;45.70;;;;;;5113686;28;20482;-42
2021/12/20 12:14:20;;;;;;;8.10;6.03;;;18.80;46.20;;;;;;5114742;28;20453;-43
2021/12/20 12:17:04;;;;;;;8.20;6.23;;;18.10;46.80;;;;;;5110927;28;20505;-42
2021/12/20 12:19:37;;;;;;;8.07;6.50;;;17.40;47.40;;;;;;5114812;28;20513;-43
2021/12/20 12:22:05;;;;;;;6.77;6.10;;;16.80;47.90;;;;;;5126117;27;20417;-42
2021/12/20 12:24:46;;;;;;;8.07;7.13;;;16.30;48.40;;;;;;5123694;27;20581;-43
2021/12/20 12:27:20;;;;;;;8.37;7.07;;;15.70;48.70;;;;;;5135357;27;20413;-43
2021/12/20 12:29:46;;;;;;;8.23;6.40;;;15.30;49.20;;;;;;5115895;27;20424;-44
2021/12/20 12:32:12;;;;;;;8.03;6.33;;;14.90;49.70;;;;;;5132983;27;20853;-41
2021/12/20 12:34:40;;;;;;;8.60;6.80;;;14.60;50.10;;;;;;5117457;27;20216;-42
2021/12/20 12:37:25;;;;;;;8.50;6.63;;;14.30;50.60;;;;;;5134936;27;20401;-41
2021/12/20 12:39:51;;;;;;;9.13;7.20;;;13.90;50.90;;;;;;5133809;27;20449;-42
2021/12/20 12:42:21;;;;;;;7.37;5.53;;;13.70;51.40;;;;;;5117976;27;20504;-44
2021/12/20 12:44:52;;;;;;;10.40;7.13;;;13.40;51.70;;;;;;5136946;27;20160;-42
2021/12/20 12:47:34;;;;;;;6.70;5.77;;;13.20;52.00;;;;;;5137029;27;20442;-42
2021/12/20 12:50:01;;;;;;;9.67;7.07;;;13.10;52.30;;;;;;5136395;27;20884;-42
2021/12/20 12:52:27;;;;;;;9.93;6.60;;;13.00;52.60;;;;;;5136868;27;20440;-42
2021/12/20 12:55:14;;;;;;;9.77;7.37;;;13.30;53.10;;;;;;5135140;27;20458;-42
2021/12/20 12:57:43;;;;;;;7.57;6.53;;;14.50;53.30;;;;;;5133188;27;20409;-44
2021/12/20 13:00:13;;;;;;;7.27;6.00;;;15.90;52.70;;;;;;5135867;27;20414;-43
2021/12/20 13:02:42;;;;;;;7.37;5.40;;;17.10;51.10;;;;;;5118868;27;20519;-43